This is the latest recevied weather packets stored in our database for station/object W2SRH. If no packets are shown the sender has not sent any weather packets the latest 1 day(s).
| Time | Temp. | Humidity | Pressure | Rain* | Wind** | Luminosity | Snow |
|---|---|---|---|---|---|---|---|
| 1836274317 | 19.44° C | 64% | - | - | 0.45 m/s, 16° | - | - |
| 1836274167 | 19.44° C | 64% | - | - | 0.45 m/s, 13° | - | - |
| 1778054344 | 17.78° C | 71% | 1001.2 hPa | 0 mm | 0.45 m/s, 236° | - | - |
| 1778053744 | 17.78° C | 71% | 1001.2 hPa | 0 mm | 0.45 m/s, 198° | - | - |
| 1778053583 | 18.33° C | 71% | 1001.4 hPa | 0 mm | 0.45 m/s, 182° | - | - |
| 1778053144 | 17.78° C | 71% | 1001.3 hPa | 0 mm | 0.45 m/s, 158° | - | - |
| 1778052544 | 18.33° C | 71% | 1001.4 hPa | 0 mm | 0.45 m/s, 182° | - | - |
| 1778051944 | 18.33° C | 70% | 1001.4 hPa | 0 mm | 0.45 m/s, 156° | - | - |
| 1778051655 | 18.89° C | 68% | 1001.5 hPa | 0 mm | 0.45 m/s, 202° | - | - |
| 1778051344 | 18.33° C | 69% | 1001.4 hPa | 0 mm | 0 m/s | - | - |
| 1778050744 | 18.89° C | 68% | 1001.5 hPa | 0 mm | 0.45 m/s, 173° | - | - |
| 1778050144 | 18.89° C | 68% | 1001.5 hPa | 0 mm | 0.45 m/s, 202° | - | - |
| 1778049736 | 18.89° C | 67% | 1001.6 hPa | 0 mm | 0.45 m/s, 170° | - | - |
| 1778049545 | 18.89° C | 68% | 1001.5 hPa | 0 mm | 0.45 m/s, 161° | - | - |
| 1778048945 | 18.89° C | 68% | 1001.5 hPa | 0 mm | 0.89 m/s, 252° | - | - |
| 1778048347 | 18.89° C | 67% | 1001.6 hPa | 0 mm | 0.45 m/s, 170° | - | - |
| 1778047805 | 19.44° C | 64% | 1001.8 hPa | 0 mm | 0.45 m/s, 283° | - | - |
| 1778047745 | 18.89° C | 66% | 1001.6 hPa | 0 mm | 0.45 m/s, 170° | - | - |
| 1778047145 | 19.44° C | 66% | 1001.5 hPa | 0 mm | 0.89 m/s, 208° | - | - |
| 1778046545 | 19.44° C | 65% | 1001.7 hPa | 0 mm | 0.45 m/s, 200° | - | - |
| 1778045945 | 19.44° C | 64% | 1001.8 hPa | 0 mm | 0.45 m/s, 283° | - | - |
| 1778045886 | 19.44° C | 63% | 1002.1 hPa | 0 mm | 0.45 m/s, 199° | - | - |
| 1778045345 | 19.44° C | 64% | 1001.8 hPa | 0 mm | 0.45 m/s, 191° | - | - |
| 1778044745 | 19.44° C | 63% | 1001.9 hPa | 0 mm | 0.45 m/s, 200° | - | - |
| 1778044144 | 19.44° C | 63% | 1002.1 hPa | 0 mm | 0.45 m/s, 199° | - | - |
* Rain since midnight (hover to see other rain measurements)
** Current wind speed in m/s (hover to see current wind gust speed)